Time;durP1;ratioP1;P1;durP2;ratioP2;P2;SDS_P1;SDS_P2;PMS_P1;PMS_P2;Temp;Humidity;BMP_temperature;BMP_pressure;BME280_temperature;BME280_humidity;BME280_pressure;Samples;Min_cycle;Max_cycle;Signal;HPM_P1;HPM_P2
2021/04/17 00:01:27;;;;;;;6.13;5.57;;;6.10;99.90;;;;;;4999648;28;20431;-72
2021/04/17 00:03:52;;;;;;;6.03;5.43;;;6.00;99.90;;;;;;4989701;28;20462;-72
2021/04/17 00:06:18;;;;;;;4.60;4.20;;;6.00;99.90;;;;;;4998114;28;20434;-71
2021/04/17 00:08:44;;;;;;;5.77;5.17;;;6.00;99.90;;;;;;4999076;28;20191;-72
2021/04/17 00:11:09;;;;;;;5.90;5.23;;;6.00;99.90;;;;;;4995265;28;20294;-72
2021/04/17 00:13:35;;;;;;;5.07;4.67;;;6.00;99.90;;;;;;5001239;28;20216;-71
2021/04/17 00:16:01;;;;;;;5.40;4.90;;;5.90;99.90;;;;;;4999255;28;20188;-72
2021/04/17 00:18:26;;;;;;;5.60;5.10;;;5.90;99.90;;;;;;4991922;28;20220;-72
2021/04/17 00:20:52;;;;;;;6.23;5.73;;;5.90;99.90;;;;;;4998299;28;20215;-72
2021/04/17 00:23:17;;;;;;;5.20;4.80;;;5.90;99.90;;;;;;4990180;28;20197;-72
2021/04/17 00:25:43;;;;;;;6.27;5.77;;;5.90;99.90;;;;;;5000640;28;20214;-71
2021/04/17 00:28:09;;;;;;;5.73;5.13;;;5.80;99.90;;;;;;4997917;28;20188;-72
2021/04/17 00:30:35;;;;;;;5.23;4.73;;;5.70;99.90;;;;;;4997272;28;20192;-72
2021/04/17 00:33:01;;;;;;;6.90;6.00;;;5.80;99.90;;;;;;4992670;28;20550;-71
2021/04/17 00:35:26;;;;;;;5.33;4.93;;;5.70;99.90;;;;;;4996996;28;20266;-71
2021/04/17 00:37:52;;;;;;;6.30;5.70;;;5.70;99.90;;;;;;4989852;28;20661;-72
2021/04/17 00:40:18;;;;;;;5.50;5.00;;;5.70;99.90;;;;;;4995439;28;20203;-72
2021/04/17 00:42:43;;;;;;;6.60;5.00;;;5.60;99.90;;;;;;4989889;28;20209;-72
2021/04/17 00:45:09;;;;;;;7.60;5.67;;;5.50;99.90;;;;;;4999648;28;20427;-73
2021/04/17 00:47:35;;;;;;;5.57;5.07;;;5.50;99.90;;;;;;4997351;28;20558;-73
2021/04/17 00:50:01;;;;;;;5.47;5.07;;;5.50;99.90;;;;;;4996771;28;20749;-72
2021/04/17 00:52:27;;;;;;;6.57;5.83;;;5.40;99.90;;;;;;4999230;28;20230;-71
2021/04/17 00:54:53;;;;;;;4.90;4.50;;;5.40;99.90;;;;;;5034039;22;20513;-75
2021/04/17 00:57:19;;;;;;;5.67;5.17;;;5.40;99.90;;;;;;5026233;28;20433;-74
2021/04/17 00:59:45;;;;;;;6.70;5.10;;;5.30;99.90;;;;;;5026865;28;20453;-75
2021/04/17 01:02:18;;;;;;;5.47;4.97;;;5.30;99.90;;;;;;5027296;28;20487;-75
2021/04/17 01:04:49;;;;;;;5.50;4.97;;;5.30;99.90;;;;;;5019226;28;20295;-74
2021/04/17 01:07:43;;;;;;;5.53;5.00;;;5.30;99.90;;;;;;5020064;28;20463;-74
2021/04/17 01:10:33;;;;;;;6.20;5.70;;;5.10;99.90;;;;;;5014077;28;20418;-76
2021/04/17 01:13:00;;;;;;;5.93;5.43;;;5.10;99.90;;;;;;5019445;28;20430;-76
2021/04/17 01:15:27;;;;;;;5.03;4.63;;;5.00;99.90;;;;;;5020622;28;20432;-75
2021/04/17 01:17:56;;;;;;;5.73;4.50;;;5.00;99.90;;;;;;5041825;28;20425;-75
2021/04/17 01:20:34;;;;;;;5.90;5.30;;;4.90;99.90;;;;;;5015622;28;20431;-75
2021/04/17 01:23:39;;;;;;;5.57;4.73;;;4.80;99.90;;;;;;5014851;28;20524;-76
2021/04/17 01:26:13;;;;;;;4.93;4.50;;;4.80;99.90;;;;;;5014170;28;20818;-76
2021/04/17 01:28:42;;;;;;;7.50;4.47;;;4.80;99.90;;;;;;5019232;28;20430;-75
2021/04/17 01:31:12;;;;;;;5.10;4.70;;;4.80;99.90;;;;;;5017587;28;20429;-77
2021/04/17 01:33:43;;;;;;;4.63;4.30;;;4.70;99.90;;;;;;5036055;28;20525;-76
2021/04/17 01:36:09;;;;;;;5.23;4.47;;;4.70;99.90;;;;;;5013318;28;20437;-76
2021/04/17 01:38:47;;;;;;;4.53;4.03;;;4.70;99.90;;;;;;5023471;28;20475;-77
2021/04/17 01:41:24;;;;;;;4.73;4.17;;;4.60;99.90;;;;;;5019085;28;20534;-77
2021/04/17 01:43:54;;;;;;;4.90;4.30;;;4.50;99.90;;;;;;5022177;28;20447;-77
2021/04/17 01:46:26;;;;;;;4.40;4.00;;;4.50;99.90;;;;;;5011930;28;20448;-77
2021/04/17 01:48:56;;;;;;;4.97;4.40;;;4.50;99.90;;;;;;5022269;28;20572;-76
2021/04/17 01:51:23;;;;;;;5.07;4.67;;;4.50;99.90;;;;;;5022635;28;20460;-76
2021/04/17 01:53:50;;;;;;;4.60;4.20;;;4.50;99.90;;;;;;5012784;28;20557;-76
2021/04/17 01:56:19;;;;;;;6.53;4.07;;;4.40;99.90;;;;;;5018007;28;20444;-76
2021/04/17 01:58:46;;;;;;;4.80;4.40;;;4.40;99.90;;;;;;5024220;28;20450;-75
2021/04/17 02:01:12;;;;;;;5.10;4.63;;;4.50;99.90;;;;;;5022583;28;20458;-75
2021/04/17 02:03:37;;;;;;;6.60;5.00;;;4.40;99.90;;;;;;5017181;28;20817;-77
2021/04/17 02:06:04;;;;;;;5.70;5.20;;;4.40;99.90;;;;;;5020819;28;20496;-76
2021/04/17 02:08:34;;;;;;;5.03;4.63;;;4.40;99.90;;;;;;5031286;28;20187;-76
2021/04/17 02:11:00;;;;;;;5.53;5.13;;;4.40;99.90;;;;;;5018244;28;20462;-79
2021/04/17 02:13:25;;;;;;;5.63;5.00;;;4.40;99.90;;;;;;5014937;28;20505;-77
2021/04/17 02:15:51;;;;;;;5.53;4.93;;;4.30;99.90;;;;;;5010493;28;20568;-75
2021/04/17 02:18:27;;;;;;;5.53;5.03;;;4.40;99.90;;;;;;5009325;28;20211;-77
2021/04/17 02:21:15;;;;;;;6.20;5.77;;;4.40;99.90;;;;;;5012182;28;20678;-77
2021/04/17 02:23:41;;;;;;;6.07;5.57;;;4.40;99.90;;;;;;5010995;28;20470;-77
2021/04/17 02:26:07;;;;;;;6.23;5.67;;;4.40;99.90;;;;;;5016546;28;20469;-76
2021/04/17 02:28:32;;;;;;;5.90;5.40;;;4.40;99.90;;;;;;5015133;28;20493;-76
2021/04/17 02:31:02;;;;;;;6.33;5.73;;;4.40;99.90;;;;;;5015561;28;20470;-76
2021/04/17 02:33:28;;;;;;;5.03;4.53;;;4.40;99.90;;;;;;5023006;28;20638;-77
2021/04/17 02:35:53;;;;;;;5.70;5.20;;;4.40;99.90;;;;;;5014791;28;20442;-77
2021/04/17 02:38:19;;;;;;;5.10;4.53;;;4.40;99.90;;;;;;5023281;28;20242;-77
2021/04/17 02:40:44;;;;;;;4.60;4.20;;;4.40;99.90;;;;;;5013755;28;20184;-75
2021/04/17 02:43:10;;;;;;;5.40;4.90;;;4.40;99.90;;;;;;5020544;28;20198;-76
2021/04/17 02:45:36;;;;;;;5.60;5.10;;;4.40;99.90;;;;;;5029095;28;20187;-77
2021/04/17 02:48:01;;;;;;;5.20;4.67;;;4.40;99.90;;;;;;5019948;28;20183;-77
2021/04/17 02:50:27;;;;;;;4.93;4.53;;;4.40;99.90;;;;;;5020006;28;20183;-77
2021/04/17 02:52:53;;;;;;;5.23;4.60;;;4.40;99.90;;;;;;5021296;28;20438;-75
2021/04/17 02:55:19;;;;;;;5.00;4.60;;;4.40;99.90;;;;;;5015556;28;20196;-76
2021/04/17 02:57:46;;;;;;;5.40;4.90;;;4.30;99.90;;;;;;5020349;28;20293;-77
2021/04/17 03:00:15;;;;;;;4.93;4.40;;;4.40;99.90;;;;;;5024270;28;20511;-77
2021/04/17 03:02:41;;;;;;;5.60;4.50;;;4.40;99.90;;;;;;5021634;28;20927;-74
2021/04/17 03:05:08;;;;;;;4.90;4.50;;;4.40;99.90;;;;;;5023350;28;20456;-76
2021/04/17 03:07:34;;;;;;;5.43;4.93;;;4.40;99.90;;;;;;5020096;28;20202;-76
2021/04/17 03:09:59;;;;;;;5.20;4.80;;;4.40;99.90;;;;;;5009793;28;20656;-76
2021/04/17 03:12:25;;;;;;;5.10;4.70;;;4.50;99.90;;;;;;5019079;28;20877;-75
2021/04/17 03:14:51;;;;;;;5.53;5.03;;;4.40;99.90;;;;;;5022555;28;20254;-79
2021/04/17 03:17:17;;;;;;;4.53;4.13;;;4.50;99.90;;;;;;5018825;28;20183;-76
2021/04/17 03:19:43;;;;;;;5.07;4.67;;;4.50;99.90;;;;;;5021621;28;20247;-77
2021/04/17 03:22:09;;;;;;;4.80;4.50;;;4.50;99.90;;;;;;5031956;28;20426;-76
2021/04/17 03:24:36;;;;;;;4.37;3.97;;;4.50;99.90;;;;;;5022236;28;20462;-76
2021/04/17 03:27:03;;;;;;;7.30;5.60;;;4.50;99.90;;;;;;5020139;28;20466;-78
2021/04/17 03:29:29;;;;;;;5.70;5.20;;;4.50;99.90;;;;;;5024209;28;21027;-78
2021/04/17 03:31:55;;;;;;;4.83;4.40;;;4.50;99.90;;;;;;5018941;28;20522;-77
2021/04/17 03:34:20;;;;;;;5.70;5.23;;;4.60;99.90;;;;;;5021000;28;20204;-76
2021/04/17 03:36:46;;;;;;;5.47;4.97;;;4.60;99.90;;;;;;5032561;28;20243;-77
2021/04/17 03:39:11;;;;;;;5.77;5.27;;;4.70;99.90;;;;;;5037111;28;20204;-78
2021/04/17 03:41:38;;;;;;;5.10;4.67;;;4.70;99.90;;;;;;5033693;28;20660;-76
2021/04/17 03:44:04;;;;;;;4.90;4.50;;;4.70;99.90;;;;;;5024465;28;20257;-76
2021/04/17 03:46:30;;;;;;;5.50;4.80;;;4.70;99.90;;;;;;5029324;28;20962;-77
2021/04/17 03:48:55;;;;;;;5.40;4.90;;;4.80;99.90;;;;;;5016585;28;20471;-77
2021/04/17 03:51:21;;;;;;;5.90;5.30;;;4.80;99.90;;;;;;5021403;28;20184;-77
2021/04/17 03:53:47;;;;;;;6.13;5.40;;;4.80;99.90;;;;;;5032682;28;20231;-78
2021/04/17 03:56:13;;;;;;;9.30;5.50;;;4.80;99.90;;;;;;5029595;28;20199;-79
2021/04/17 03:58:39;;;;;;;5.60;5.20;;;4.80;99.90;;;;;;5030482;28;20225;-77
2021/04/17 04:01:05;;;;;;;5.37;4.90;;;4.90;99.90;;;;;;5025297;28;20434;-78
2021/04/17 04:03:30;;;;;;;6.93;6.33;;;5.00;99.90;;;;;;5027578;28;20508;-75
2021/04/17 04:05:56;;;;;;;6.30;5.57;;;5.00;99.90;;;;;;5020421;28;20266;-77
2021/04/17 04:08:21;;;;;;;7.10;5.30;;;5.00;99.90;;;;;;5025153;28;20569;-78
2021/04/17 04:10:47;;;;;;;6.00;5.40;;;4.90;99.90;;;;;;5019178;28;20188;-76
2021/04/17 04:13:13;;;;;;;6.13;5.53;;;5.00;99.90;;;;;;5022988;28;20652;-76
2021/04/17 04:15:38;;;;;;;6.87;6.17;;;4.90;99.90;;;;;;5017740;28;20191;-75
2021/04/17 04:18:04;;;;;;;6.27;5.67;;;4.90;99.90;;;;;;5018971;28;20176;-76
2021/04/17 04:20:30;;;;;;;8.23;5.80;;;5.00;99.90;;;;;;5015858;28;20255;-78
2021/04/17 04:22:58;;;;;;;6.63;6.03;;;5.00;99.90;;;;;;5013176;28;20481;-77
2021/04/17 04:25:23;;;;;;;6.23;5.63;;;5.00;99.90;;;;;;5020528;28;20184;-75
2021/04/17 04:27:49;;;;;;;6.90;6.20;;;5.00;99.90;;;;;;5022263;28;20953;-77
2021/04/17 04:30:15;;;;;;;7.43;6.73;;;4.90;99.90;;;;;;5015176;28;20183;-77
2021/04/17 04:32:40;;;;;;;5.60;5.10;;;4.90;99.90;;;;;;5018805;28;20195;-76
2021/04/17 04:35:07;;;;;;;6.47;5.97;;;4.90;99.90;;;;;;5013753;28;20478;-78
2021/04/17 04:37:33;;;;;;;8.03;7.23;;;4.80;99.90;;;;;;5023602;28;20247;-76
2021/04/17 04:39:58;;;;;;;6.43;5.87;;;4.80;99.90;;;;;;5018483;28;20553;-76
2021/04/17 04:42:25;;;;;;;7.10;6.50;;;4.80;99.90;;;;;;5017596;28;20195;-76
2021/04/17 04:44:50;;;;;;;6.83;6.20;;;4.80;99.90;;;;;;5023836;28;20476;-78
2021/04/17 04:47:16;;;;;;;7.50;6.80;;;4.90;99.90;;;;;;5019538;28;20187;-77
2021/04/17 04:49:42;;;;;;;6.97;6.27;;;4.90;99.90;;;;;;5025528;28;20198;-78
2021/04/17 04:52:08;;;;;;;7.27;6.67;;;5.00;99.90;;;;;;5026185;28;20442;-78
2021/04/17 04:54:33;;;;;;;8.10;7.30;;;5.00;99.90;;;;;;5022114;28;20248;-77
2021/04/17 04:56:59;;;;;;;9.03;6.67;;;4.90;99.90;;;;;;5045758;28;20191;-79
2021/04/17 04:59:24;;;;;;;7.63;7.03;;;4.90;99.90;;;;;;5028837;28;20212;-78
2021/04/17 05:01:50;;;;;;;8.13;6.93;;;4.90;99.90;;;;;;5024214;28;20220;-78
2021/04/17 05:04:16;;;;;;;6.10;5.60;;;4.90;99.90;;;;;;5019438;28;20681;-77
2021/04/17 05:06:41;;;;;;;7.10;6.50;;;4.90;99.90;;;;;;5018829;28;20195;-77
2021/04/17 05:09:07;;;;;;;7.17;6.57;;;4.80;99.90;;;;;;5018617;28;20250;-76
2021/04/17 05:11:33;;;;;;;7.10;6.40;;;4.80;99.90;;;;;;5015221;28;20663;-77
2021/04/17 05:13:59;;;;;;;7.33;6.60;;;4.80;99.90;;;;;;5015388;28;20215;-77
2021/04/17 05:16:25;;;;;;;7.67;6.97;;;4.80;99.90;;;;;;5025664;28;20435;-77
2021/04/17 05:18:50;;;;;;;6.73;6.20;;;4.80;99.90;;;;;;5017457;28;20565;-76
2021/04/17 05:21:16;;;;;;;7.10;6.40;;;4.90;99.90;;;;;;5026570;28;20194;-76
2021/04/17 05:23:41;;;;;;;7.07;6.47;;;5.00;99.90;;;;;;5016011;28;20706;-76
2021/04/17 05:26:07;;;;;;;7.20;6.50;;;4.90;99.90;;;;;;5019334;28;20237;-75
2021/04/17 05:28:33;;;;;;;8.33;7.57;;;4.90;99.90;;;;;;5020082;28;20199;-76
2021/04/17 05:30:58;;;;;;;9.43;8.47;;;5.00;99.90;;;;;;5016016;28;20411;-76
2021/04/17 05:33:24;;;;;;;7.60;6.63;;;5.10;99.90;;;;;;5019385;28;20202;-77
2021/04/17 05:35:49;;;;;;;8.20;6.77;;;5.10;99.90;;;;;;5009300;28;20216;-76
2021/04/17 05:38:15;;;;;;;7.40;6.80;;;5.10;99.90;;;;;;5013577;28;20214;-76
2021/04/17 05:40:40;;;;;;;7.57;6.87;;;5.20;99.90;;;;;;5027243;28;20245;-76
2021/04/17 05:43:06;;;;;;;8.80;8.10;;;5.30;99.90;;;;;;5027992;28;20243;-76
2021/04/17 05:45:32;;;;;;;6.90;6.20;;;5.40;99.90;;;;;;5021148;28;20203;-77
2021/04/17 05:47:57;;;;;;;8.00;6.80;;;5.40;99.90;;;;;;5024499;28;20241;-76
2021/04/17 05:50:23;;;;;;;7.90;7.10;;;5.50;99.90;;;;;;5017516;28;20640;-77
2021/04/17 05:52:48;;;;;;;8.33;7.63;;;5.60;99.90;;;;;;5020860;28;20238;-79
2021/04/17 05:55:14;;;;;;;7.50;6.80;;;5.60;99.90;;;;;;5009976;28;20195;-76
2021/04/17 05:57:40;;;;;;;6.70;6.20;;;5.70;99.90;;;;;;5016175;28;20539;-81
2021/04/17 06:00:07;;;;;;;7.23;6.53;;;5.70;99.90;;;;;;5018022;28;20472;-76
2021/04/17 06:02:33;;;;;;;7.23;6.03;;;5.70;99.90;;;;;;5021495;28;20241;-77
2021/04/17 06:04:58;;;;;;;7.03;6.43;;;5.70;99.90;;;;;;5020350;28;20447;-77
2021/04/17 06:07:24;;;;;;;6.67;6.07;;;5.80;99.90;;;;;;5018404;28;20232;-78
2021/04/17 06:09:50;;;;;;;8.27;6.00;;;5.90;99.90;;;;;;5023720;28;20245;-75
2021/04/17 06:12:15;;;;;;;7.17;6.50;;;5.90;99.90;;;;;;5019225;28;20194;-75
2021/04/17 06:14:41;;;;;;;6.10;5.50;;;5.90;99.90;;;;;;5020314;28;20895;-76
2021/04/17 06:17:07;;;;;;;6.70;5.40;;;6.10;99.90;;;;;;5019417;28;20180;-76
2021/04/17 06:19:33;;;;;;;6.23;5.63;;;6.20;99.90;;;;;;5020112;28;20207;-75
2021/04/17 06:21:58;;;;;;;6.50;5.63;;;6.50;99.90;;;;;;5018942;28;20179;-77
2021/04/17 06:24:24;;;;;;;5.40;4.90;;;6.60;99.90;;;;;;5021484;28;20446;-75
2021/04/17 06:26:49;;;;;;;5.43;4.93;;;6.70;99.90;;;;;;5017820;28;20184;-76
2021/04/17 06:29:15;;;;;;;8.20;5.40;;;6.70;99.90;;;;;;5017801;28;20211;-76
2021/04/17 06:31:41;;;;;;;5.87;5.37;;;6.90;99.90;;;;;;5046483;28;20183;-76
2021/04/17 06:34:06;;;;;;;5.53;4.73;;;6.90;99.90;;;;;;5022797;28;20207;-76
2021/04/17 06:36:33;;;;;;;5.73;4.97;;;6.90;99.90;;;;;;5018385;28;20198;-76
2021/04/17 06:38:58;;;;;;;5.50;5.00;;;6.70;99.90;;;;;;5017689;28;20680;-76
2021/04/17 06:41:26;;;;;;;5.50;4.97;;;6.70;99.90;;;;;;5021155;28;20428;-75
2021/04/17 06:43:54;;;;;;;5.43;4.33;;;6.70;99.90;;;;;;5015499;28;20227;-76
2021/04/17 06:46:20;;;;;;;4.83;4.33;;;6.80;99.90;;;;;;5019022;28;20814;-76
2021/04/17 06:48:46;;;;;;;5.40;4.90;;;6.80;99.90;;;;;;5023544;28;20441;-76
2021/04/17 06:51:18;;;;;;;8.03;5.17;;;6.70;99.90;;;;;;5017731;28;20426;-76
2021/04/17 06:53:45;;;;;;;4.83;4.30;;;6.90;99.90;;;;;;5022415;28;20474;-77
2021/04/17 06:56:12;;;;;;;5.30;4.27;;;7.00;99.90;;;;;;5020480;28;20433;-76
2021/04/17 06:58:39;;;;;;;4.27;3.97;;;7.10;99.90;;;;;;5019572;28;20516;-76
2021/04/17 07:01:06;;;;;;;4.43;3.70;;;7.20;99.90;;;;;;5015470;28;20423;-78
2021/04/17 07:03:32;;;;;;;5.17;4.10;;;7.40;99.90;;;;;;5020330;28;20461;-77
2021/04/17 07:05:58;;;;;;;4.93;4.30;;;7.50;99.90;;;;;;5019863;28;20434;-76
2021/04/17 07:08:24;;;;;;;5.70;3.83;;;7.50;99.90;;;;;;5018557;28;20418;-77
2021/04/17 07:10:49;;;;;;;6.20;4.27;;;7.60;99.90;;;;;;5021413;28;20195;-76
2021/04/17 07:13:17;;;;;;;4.27;3.87;;;7.70;99.90;;;;;;5019803;28;20215;-77
2021/04/17 07:15:43;;;;;;;5.10;3.90;;;7.80;99.90;;;;;;5020882;28;20275;-76
2021/04/17 07:18:30;;;;;;;4.60;3.53;;;7.90;99.90;;;;;;5019017;28;20427;-76
2021/04/17 07:21:19;;;;;;;5.83;3.67;;;7.80;99.90;;;;;;5022358;28;20427;-77
2021/04/17 07:23:47;;;;;;;4.43;4.03;;;7.80;99.90;;;;;;5014209;28;20531;-77
2021/04/17 07:26:18;;;;;;;6.80;3.80;;;7.70;99.90;;;;;;5019245;28;20427;-75
2021/04/17 07:29:13;;;;;;;5.17;4.27;;;7.60;99.90;;;;;;5027380;28;21004;-78
2021/04/17 07:31:51;;;;;;;3.90;3.50;;;7.50;99.90;;;;;;5042197;28;20427;-76
2021/04/17 07:34:19;;;;;;;4.70;4.03;;;7.60;99.90;;;;;;5020424;28;20963;-76
2021/04/17 07:36:52;;;;;;;4.07;3.67;;;7.60;99.90;;;;;;5021369;28;20419;-76
2021/04/17 07:39:32;;;;;;;4.83;3.40;;;7.70;99.90;;;;;;5013438;28;20466;-77
2021/04/17 07:42:18;;;;;;;4.53;4.13;;;7.80;99.90;;;;;;5019987;28;20434;-76
2021/04/17 07:44:47;;;;;;;4.63;3.63;;;8.00;99.90;;;;;;5011958;28;21130;-76
2021/04/17 07:47:29;;;;;;;4.47;4.03;;;8.20;99.90;;;;;;5014548;28;20426;-77
2021/04/17 07:50:06;;;;;;;7.30;3.40;;;8.30;99.90;;;;;;5021214;28;20436;-78
2021/04/17 07:52:32;;;;;;;4.63;4.10;;;8.50;99.90;;;;;;5020656;28;20438;-77
2021/04/17 07:55:03;;;;;;;5.60;3.90;;;8.60;99.90;;;;;;5009430;28;20478;-76
2021/04/17 07:57:37;;;;;;;6.63;4.10;;;8.60;99.90;;;;;;5018246;28;20421;-76
2021/04/17 08:00:09;;;;;;;5.10;3.80;;;8.60;99.90;;;;;;5026559;28;20508;-76
2021/04/17 08:02:36;;;;;;;3.60;3.23;;;8.70;99.90;;;;;;5026422;28;20437;-77
2021/04/17 08:05:03;;;;;;;3.70;3.40;;;8.70;99.90;;;;;;5028376;28;20966;-77
2021/04/17 08:07:32;;;;;;;4.37;3.97;;;9.00;99.90;;;;;;5021945;28;20424;-78
2021/04/17 08:09:59;;;;;;;4.33;3.93;;;9.30;99.90;;;;;;5020219;28;20415;-77
2021/04/17 08:12:24;;;;;;;5.60;3.70;;;9.50;99.90;;;;;;5017935;28;20422;-76
2021/04/17 08:14:50;;;;;;;4.53;3.20;;;9.70;99.90;;;;;;5015376;28;20460;-75
2021/04/17 08:17:17;;;;;;;3.47;3.00;;;9.80;99.90;;;;;;5021678;28;20226;-77
2021/04/17 08:19:42;;;;;;;4.47;3.70;;;9.90;99.90;;;;;;5019028;28;20484;-76
2021/04/17 08:22:08;;;;;;;5.73;3.70;;;10.00;99.90;;;;;;5014820;28;20427;-76
2021/04/17 08:24:34;;;;;;;3.70;3.40;;;10.00;99.90;;;;;;5015631;28;20211;-75
2021/04/17 08:27:01;;;;;;;4.77;3.00;;;10.00;99.90;;;;;;5018178;28;20251;-76
2021/04/17 08:29:45;;;;;;;4.33;3.13;;;9.90;99.90;;;;;;5015778;28;20649;-78
2021/04/17 08:32:43;;;;;;;3.63;3.00;;;10.00;99.90;;;;;;5017311;28;20429;-77
2021/04/17 08:35:20;;;;;;;5.73;3.10;;;9.80;99.90;;;;;;5002774;28;20516;-79
2021/04/17 08:37:52;;;;;;;3.83;3.00;;;9.70;99.90;;;;;;5012038;28;20425;-75
2021/04/17 08:40:33;;;;;;;3.10;2.80;;;9.80;99.90;;;;;;5023792;28;20961;-76
2021/04/17 08:43:00;;;;;;;4.40;3.53;;;9.70;99.50;;;;;;5018070;28;20824;-76
2021/04/17 08:45:26;;;;;;;3.30;2.67;;;9.70;99.90;;;;;;5025371;28;20834;-76
2021/04/17 08:47:57;;;;;;;3.87;2.77;;;9.70;99.00;;;;;;5013102;28;20418;-78
2021/04/17 08:50:29;;;;;;;4.50;4.10;;;9.80;98.80;;;;;;5017096;28;20422;-75
2021/04/17 08:52:58;;;;;;;5.40;3.30;;;9.90;98.50;;;;;;5023804;28;20431;-77
2021/04/17 08:55:42;;;;;;;2.87;2.60;;;9.70;97.80;;;;;;5036248;28;20441;-77
2021/04/17 08:58:25;;;;;;;3.83;2.57;;;9.80;97.80;;;;;;5026567;28;20671;-76
2021/04/17 09:00:51;;;;;;;3.87;3.27;;;9.80;96.70;;;;;;5020393;28;20451;-76
2021/04/17 09:03:42;;;;;;;3.90;3.60;;;9.70;95.90;;;;;;5021636;28;20485;-77
2021/04/17 09:06:09;;;;;;;3.00;2.70;;;9.60;96.60;;;;;;5026513;28;20193;-77
2021/04/17 09:08:38;;;;;;;3.53;2.93;;;9.80;95.80;;;;;;5033326;28;20433;-76
2021/04/17 09:11:36;;;;;;;4.37;3.03;;;9.90;96.10;;;;;;5036318;28;20457;-76
2021/04/17 09:14:03;;;;;;;3.43;3.03;;;10.00;95.40;;;;;;5031073;28;20440;-77
2021/04/17 09:16:39;;;;;;;3.60;2.93;;;10.00;95.40;;;;;;5055258;28;20434;-77
2021/04/17 09:19:05;;;;;;;4.27;2.60;;;10.00;94.80;;;;;;5024598;28;20553;-77
2021/04/17 09:21:33;;;;;;;4.10;3.00;;;9.90;95.10;;;;;;5022349;28;20544;-77
2021/04/17 09:23:59;;;;;;;3.93;2.83;;;10.00;94.20;;;;;;5029030;28;20442;-76
2021/04/17 09:26:31;;;;;;;4.20;3.50;;;9.90;93.90;;;;;;5022076;28;20422;-77
2021/04/17 09:28:59;;;;;;;3.90;2.80;;;9.70;93.40;;;;;;5026013;28;20441;-77
2021/04/17 09:31:25;;;;;;;2.70;2.50;;;9.60;93.00;;;;;;5018867;28;20465;-75
2021/04/17 09:34:01;;;;;;;4.10;2.90;;;9.70;92.10;;;;;;5013178;28;20450;-76
2021/04/17 09:36:27;;;;;;;2.70;2.50;;;9.80;92.40;;;;;;5015838;28;20442;-76
2021/04/17 09:38:53;;;;;;;3.73;2.67;;;9.90;92.40;;;;;;5012809;28;20469;-77
2021/04/17 09:41:18;;;;;;;3.47;3.13;;;10.10;91.20;;;;;;5015007;28;20206;-76
2021/04/17 09:43:56;;;;;;;2.90;2.70;;;10.30;91.80;;;;;;5019210;28;20470;-75
2021/04/17 09:46:23;;;;;;;2.97;2.70;;;10.50;91.60;;;;;;5015790;28;20729;-76
2021/04/17 09:48:49;;;;;;;4.37;3.17;;;10.50;91.20;;;;;;5024669;28;20435;-80
2021/04/17 09:51:33;;;;;;;3.80;2.97;;;10.60;91.60;;;;;;5017498;28;20529;-76
2021/04/17 09:54:04;;;;;;;4.83;2.90;;;10.60;90.70;;;;;;5021812;28;20474;-77
2021/04/17 09:56:41;;;;;;;2.60;2.40;;;10.60;90.60;;;;;;5024686;28;20433;-77
2021/04/17 09:59:08;;;;;;;5.00;3.50;;;10.40;90.40;;;;;;5034146;28;20511;-75
2021/04/17 10:01:35;;;;;;;4.53;3.47;;;10.50;90.00;;;;;;5023846;28;20453;-77
2021/04/17 10:04:01;;;;;;;3.73;3.03;;;10.40;90.20;;;;;;5025843;28;20528;-76
2021/04/17 10:06:35;;;;;;;4.17;2.97;;;10.50;90.60;;;;;;5027140;28;20446;-76
2021/04/17 10:09:06;;;;;;;3.50;3.20;;;10.70;90.40;;;;;;5023735;28;20426;-76
2021/04/17 10:11:33;;;;;;;5.03;3.13;;;10.80;91.00;;;;;;5030583;28;20516;-77
2021/04/17 10:13:59;;;;;;;3.30;3.00;;;10.60;90.50;;;;;;5027146;28;20460;-75
2021/04/17 10:16:31;;;;;;;3.70;3.17;;;10.40;90.70;;;;;;5037109;28;20511;-76
2021/04/17 10:18:58;;;;;;;3.47;3.10;;;10.40;90.00;;;;;;5026089;28;20469;-77
2021/04/17 10:21:25;;;;;;;4.60;3.70;;;10.50;90.60;;;;;;5048955;28;20517;-77
2021/04/17 10:24:29;;;;;;;3.90;3.60;;;10.70;91.10;;;;;;5018185;28;20503;-76
2021/04/17 10:26:57;;;;;;;3.97;3.00;;;10.90;90.80;;;;;;5022220;28;20424;-76
2021/04/17 10:29:44;;;;;;;3.70;3.40;;;11.10;91.00;;;;;;5023473;28;20506;-76
2021/04/17 10:32:15;;;;;;;3.73;3.07;;;11.30;90.60;;;;;;5021471;28;20435;-76
2021/04/17 10:34:43;;;;;;;7.10;2.97;;;11.40;89.90;;;;;;5022010;28;20465;-75
2021/04/17 10:37:15;;;;;;;4.90;3.20;;;11.60;90.50;;;;;;5021922;28;20434;-78
2021/04/17 10:40:04;;;;;;;4.87;3.63;;;11.80;90.00;;;;;;5023726;28;20457;-78
2021/04/17 10:42:53;;;;;;;3.57;3.00;;;11.80;90.30;;;;;;5021347;28;20803;-76
2021/04/17 10:45:21;;;;;;;4.43;3.60;;;11.80;87.20;;;;;;5018343;28;20430;-76
2021/04/17 10:48:07;;;;;;;5.03;3.03;;;11.90;85.50;;;;;;5013996;28;20498;-76
2021/04/17 10:50:42;;;;;;;4.43;3.57;;;11.90;86.00;;;;;;5026459;28;20449;-78
2021/04/17 10:53:11;;;;;;;4.17;3.50;;;11.80;85.00;;;;;;5011382;28;20434;-75
2021/04/17 10:55:38;;;;;;;3.40;3.03;;;11.80;86.20;;;;;;5039106;28;20487;-77
2021/04/17 10:58:05;;;;;;;4.57;4.17;;;11.40;86.00;;;;;;5022867;28;20457;-78
2021/04/17 11:00:35;;;;;;;4.10;3.70;;;11.40;86.20;;;;;;5024077;28;20438;-76
2021/04/17 11:03:03;;;;;;;3.53;3.23;;;11.60;87.50;;;;;;5024176;28;20576;-75
2021/04/17 11:05:31;;;;;;;4.67;3.50;;;11.90;87.00;;;;;;5030399;28;20509;-78
2021/04/17 11:07:59;;;;;;;5.10;3.17;;;12.00;82.70;;;;;;5022423;28;20781;-77
2021/04/17 11:10:33;;;;;;;4.27;2.87;;;12.00;84.60;;;;;;5023469;28;20430;-75
2021/04/17 11:12:59;;;;;;;3.77;3.40;;;12.10;84.90;;;;;;5022904;28;20561;-77
2021/04/17 11:15:28;;;;;;;4.83;3.33;;;12.10;83.70;;;;;;5018883;28;20581;-76
2021/04/17 11:18:19;;;;;;;5.37;3.30;;;11.90;83.60;;;;;;5022160;28;20180;-76
2021/04/17 11:20:54;;;;;;;6.07;3.10;;;11.80;84.20;;;;;;5021256;28;20422;-77
2021/04/17 11:23:43;;;;;;;3.83;2.93;;;12.00;85.30;;;;;;5012663;28;20438;-77
2021/04/17 11:26:11;;;;;;;3.37;2.70;;;12.30;85.00;;;;;;5022042;28;20876;-76
2021/04/17 11:28:57;;;;;;;3.70;3.40;;;12.40;83.60;;;;;;5019553;28;20430;-76
2021/04/17 11:31:29;;;;;;;4.40;3.40;;;12.70;83.00;;;;;;5021547;28;20410;-76
2021/04/17 11:33:58;;;;;;;3.80;2.80;;;12.90;81.80;;;;;;5018146;28;20454;-76
2021/04/17 11:36:26;;;;;;;7.33;4.00;;;13.20;80.90;;;;;;5019100;28;20938;-76
2021/04/17 11:38:52;;;;;;;3.90;3.33;;;13.20;81.60;;;;;;5015775;28;20462;-76
2021/04/17 11:41:18;;;;;;;3.30;3.00;;;12.90;81.50;;;;;;5017933;28;20422;-77
2021/04/17 11:43:44;;;;;;;3.43;3.10;;;12.60;82.30;;;;;;5022467;28;20457;-78
2021/04/17 11:46:11;;;;;;;4.90;2.80;;;12.50;83.20;;;;;;5017295;28;20423;-76
2021/04/17 11:48:39;;;;;;;3.77;3.47;;;12.20;83.70;;;;;;5020913;28;20504;-77
2021/04/17 11:51:05;;;;;;;5.57;3.50;;;12.30;84.40;;;;;;5021190;28;20427;-78
2021/04/17 11:53:30;;;;;;;3.77;3.47;;;12.60;84.30;;;;;;5017049;28;20462;-75
2021/04/17 11:55:56;;;;;;;5.53;3.73;;;12.70;83.50;;;;;;5023759;28;20441;-75
2021/04/17 11:58:22;;;;;;;4.37;3.53;;;12.60;82.90;;;;;;5023605;28;20187;-76
2021/04/17 12:00:47;;;;;;;3.80;3.10;;;12.60;83.10;;;;;;5020785;28;20188;-78
2021/04/17 12:03:21;;;;;;;4.00;3.07;;;12.70;82.90;;;;;;5019638;28;20259;-76
2021/04/17 12:05:50;;;;;;;3.90;3.30;;;12.90;83.00;;;;;;5022259;28;20203;-75
2021/04/17 12:08:16;;;;;;;3.40;3.10;;;12.90;81.80;;;;;;5017272;28;20543;-75
2021/04/17 12:10:42;;;;;;;3.20;2.90;;;13.00;81.50;;;;;;5018715;28;20426;-77
2021/04/17 12:13:07;;;;;;;5.37;3.03;;;13.20;82.40;;;;;;5015964;28;20241;-76
2021/04/17 12:15:33;;;;;;;4.37;3.53;;;13.20;79.80;;;;;;5015641;28;20672;-75
2021/04/17 12:17:59;;;;;;;5.30;3.37;;;13.50;82.20;;;;;;5019284;28;20598;-76
2021/04/17 12:20:25;;;;;;;3.77;2.60;;;13.80;79.90;;;;;;5017112;28;20207;-76
2021/04/17 12:22:50;;;;;;;3.40;2.83;;;13.90;78.70;;;;;;5017850;28;20267;-76
2021/04/17 12:25:17;;;;;;;3.30;2.47;;;13.70;79.00;;;;;;5019686;28;20210;-76
2021/04/17 12:27:43;;;;;;;4.83;3.00;;;14.00;79.80;;;;;;5020309;28;20248;-76
2021/04/17 12:30:10;;;;;;;4.37;3.00;;;14.50;79.40;;;;;;5015238;28;20936;-76
2021/04/17 12:32:36;;;;;;;4.67;2.57;;;14.80;77.80;;;;;;5023649;28;20182;-76
2021/04/17 12:35:02;;;;;;;3.33;3.03;;;14.90;75.90;;;;;;5013502;28;20434;-76
2021/04/17 12:37:28;;;;;;;3.67;2.43;;;15.10;75.80;;;;;;5016919;28;20182;-76
2021/04/17 12:39:54;;;;;;;3.03;2.63;;;14.90;74.50;;;;;;5023030;28;20468;-76
2021/04/17 12:42:19;;;;;;;5.00;2.70;;;14.60;74.10;;;;;;5014435;28;20423;-77
2021/04/17 12:44:45;;;;;;;2.77;2.20;;;14.60;74.60;;;;;;5019456;28;20249;-75
2021/04/17 12:47:11;;;;;;;3.97;2.90;;;14.90;72.60;;;;;;5043231;28;20203;-75
2021/04/17 12:49:36;;;;;;;1.77;1.60;;;14.90;72.30;;;;;;5018510;28;20266;-76
2021/04/17 12:52:03;;;;;;;6.50;2.57;;;15.10;72.10;;;;;;5029828;28;20180;-76
2021/04/17 12:54:28;;;;;;;4.00;2.23;;;14.90;71.50;;;;;;5044711;28;20222;-76
2021/04/17 12:56:54;;;;;;;2.80;2.60;;;14.50;72.20;;;;;;5018650;28;20442;-76
2021/04/17 12:59:19;;;;;;;3.93;2.23;;;14.00;72.20;;;;;;5043012;28;20191;-74
2021/04/17 13:01:45;;;;;;;5.40;3.40;;;14.00;74.40;;;;;;5016952;28;20172;-76
2021/04/17 13:04:11;;;;;;;4.00;2.97;;;14.40;74.70;;;;;;5025845;28;20203;-76